Owensville, Arkansas
Current Conditions -  °F | °C
As of 11:53 AM on Monday 22 Dec 2014 (Local Time) from KHOT Reporting Station
Haze Haze  
Wind Chill: 52°   Ceiling: 400
Heat Index: 52°   Visibility: 2.5mi
Dew Point: 50°   Wind: 8mph
Humidity: 93%   Direction: 150°SSE
Pressure: 29.62"   Gusts: NA
Location:  34.5473°N, 92.8489°W
Report Text: KHOT 221753Z AUTO 15007KT 2 1/2SM BR OVC004 11/10 A2962 RMK AO2 SLP028 60000 T01110100 10111 20083 58029
Loading
Personal Weather Stations






























Interactive Weather Map New forecast layout! Learn more

10-Day Weather Forecast

Advertisements
Track Severe Weather on mobile